sensor_id;sensor_type;location;lat;lon;timestamp;P1;durP1;ratioP1;P2;durP2;ratioP2
6665;SDS011;3369;49.906;8.598;2023-01-15T02:39:35;0.53;;;0.53;;
6665;SDS011;3369;49.906;8.598;2023-01-15T02:42:04;0.50;;;0.50;;
6665;SDS011;3369;49.906;8.598;2023-01-15T02:44:34;0.40;;;0.40;;
6665;SDS011;3369;49.906;8.598;2023-01-15T02:47:04;0.40;;;0.40;;
6665;SDS011;3369;49.906;8.598;2023-01-15T02:49:31;0.30;;;0.30;;
6665;SDS011;3369;49.906;8.598;2023-01-15T02:52:05;0.40;;;0.40;;
6665;SDS011;3369;49.906;8.598;2023-01-15T02:54:35;0.40;;;0.40;;
6665;SDS011;3369;49.906;8.598;2023-01-15T02:57:06;0.53;;;0.40;;
6665;SDS011;3369;49.906;8.598;2023-01-15T02:59:36;0.40;;;0.40;;
6665;SDS011;3369;49.906;8.598;2023-01-15T03:02:06;0.30;;;0.30;;
6665;SDS011;3369;49.906;8.598;2023-01-15T03:07:50;0.40;;;0.40;;
6665;SDS011;3369;49.906;8.598;2023-01-15T03:10:20;0.40;;;0.40;;
6665;SDS011;3369;49.906;8.598;2023-01-15T03:12:59;0.77;;;0.77;;
6665;SDS011;3369;49.906;8.598;2023-01-15T03:18:39;0.50;;;0.50;;
6665;SDS011;3369;49.906;8.598;2023-01-15T03:21:10;0.40;;;0.40;;
6665;SDS011;3369;49.906;8.598;2023-01-15T03:23:40;0.30;;;0.30;;
6665;SDS011;3369;49.906;8.598;2023-01-15T03:26:10;0.60;;;0.40;;
6665;SDS011;3369;49.906;8.598;2023-01-15T03:28:35;0.40;;;0.40;;
6665;SDS011;3369;49.906;8.598;2023-01-15T03:31:03;0.40;;;0.40;;
6665;SDS011;3369;49.906;8.598;2023-01-15T03:33:29;0.40;;;0.40;;
6665;SDS011;3369;49.906;8.598;2023-01-15T03:35:57;0.50;;;0.50;;
6665;SDS011;3369;49.906;8.598;2023-01-15T03:38:25;0.50;;;0.50;;
6665;SDS011;3369;49.906;8.598;2023-01-15T03:44:04;0.40;;;0.40;;
6665;SDS011;3369;49.906;8.598;2023-01-15T03:46:53;0.60;;;0.57;;
6665;SDS011;3369;49.906;8.598;2023-01-15T03:49:36;0.50;;;0.50;;
6665;SDS011;3369;49.906;8.598;2023-01-15T03:52:42;0.40;;;0.40;;
6665;SDS011;3369;49.906;8.598;2023-01-15T03:55:25;0.30;;;0.30;;
6665;SDS011;3369;49.906;8.598;2023-01-15T03:59:01;0.40;;;0.40;;
6665;SDS011;3369;49.906;8.598;2023-01-15T04:01:14;0.30;;;0.30;;
6665;SDS011;3369;49.906;8.598;2023-01-15T04:03:42;0.30;;;0.30;;
6665;SDS011;3369;49.906;8.598;2023-01-15T04:06:09;0.57;;;0.40;;
6665;SDS011;3369;49.906;8.598;2023-01-15T04:08:39;0.30;;;0.30;;
6665;SDS011;3369;49.906;8.598;2023-01-15T04:11:06;0.30;;;0.30;;
6665;SDS011;3369;49.906;8.598;2023-01-15T04:13:32;0.30;;;0.30;;
6665;SDS011;3369;49.906;8.598;2023-01-15T04:15:58;0.30;;;0.30;;
6665;SDS011;3369;49.906;8.598;2023-01-15T04:18:24;0.40;;;0.40;;
6665;SDS011;3369;49.906;8.598;2023-01-15T04:20:50;0.83;;;0.60;;
6665;SDS011;3369;49.906;8.598;2023-01-15T04:23:15;0.40;;;0.40;;
6665;SDS011;3369;49.906;8.598;2023-01-15T04:25:41;0.30;;;0.30;;
6665;SDS011;3369;49.906;8.598;2023-01-15T04:28:07;0.93;;;0.50;;
6665;SDS011;3369;49.906;8.598;2023-01-15T04:30:33;0.40;;;0.40;;
6665;SDS011;3369;49.906;8.598;2023-01-15T04:33:00;1.13;;;0.40;;
6665;SDS011;3369;49.906;8.598;2023-01-15T04:35:25;0.70;;;0.40;;
6665;SDS011;3369;49.906;8.598;2023-01-15T04:37:57;0.30;;;0.30;;
6665;SDS011;3369;49.906;8.598;2023-01-15T04:40:24;0.40;;;0.40;;
6665;SDS011;3369;49.906;8.598;2023-01-15T04:43:09;0.40;;;0.40;;
6665;SDS011;3369;49.906;8.598;2023-01-15T04:45:54;0.33;;;0.33;;
6665;SDS011;3369;49.906;8.598;2023-01-15T04:48:20;0.30;;;0.30;;
6665;SDS011;3369;49.906;8.598;2023-01-15T04:50:45;0.40;;;0.40;;
6665;SDS011;3369;49.906;8.598;2023-01-15T04:53:11;1.70;;;0.50;;
6665;SDS011;3369;49.906;8.598;2023-01-15T04:55:37;0.30;;;0.30;;
6665;SDS011;3369;49.906;8.598;2023-01-15T04:58:03;0.40;;;0.40;;
6665;SDS011;3369;49.906;8.598;2023-01-15T05:00:28;1.10;;;0.50;;
6665;SDS011;3369;49.906;8.598;2023-01-15T05:02:54;0.40;;;0.40;;
6665;SDS011;3369;49.906;8.598;2023-01-15T05:05:20;0.40;;;0.40;;
6665;SDS011;3369;49.906;8.598;2023-01-15T05:07:45;0.37;;;0.37;;
6665;SDS011;3369;49.906;8.598;2023-01-15T05:10:11;0.80;;;0.50;;
6665;SDS011;3369;49.906;8.598;2023-01-15T05:12:36;0.40;;;0.40;;
6665;SDS011;3369;49.906;8.598;2023-01-15T05:15:02;0.40;;;0.40;;
6665;SDS011;3369;49.906;8.598;2023-01-15T05:17:28;0.40;;;0.40;;
6665;SDS011;3369;49.906;8.598;2023-01-15T05:19:55;0.57;;;0.43;;
6665;SDS011;3369;49.906;8.598;2023-01-15T05:22:21;0.30;;;0.30;;
6665;SDS011;3369;49.906;8.598;2023-01-15T05:24:47;0.40;;;0.40;;
6665;SDS011;3369;49.906;8.598;2023-01-15T05:27:12;0.40;;;0.40;;
6665;SDS011;3369;49.906;8.598;2023-01-15T05:29:38;0.50;;;0.47;;
6665;SDS011;3369;49.906;8.598;2023-01-15T05:32:03;0.40;;;0.40;;
6665;SDS011;3369;49.906;8.598;2023-01-15T05:34:29;1.47;;;0.40;;
6665;SDS011;3369;49.906;8.598;2023-01-15T05:36:55;0.40;;;0.40;;
6665;SDS011;3369;49.906;8.598;2023-01-15T05:39:20;0.40;;;0.40;;
6665;SDS011;3369;49.906;8.598;2023-01-15T05:41:46;0.37;;;0.37;;
6665;SDS011;3369;49.906;8.598;2023-01-15T05:44:19;0.40;;;0.40;;
6665;SDS011;3369;49.906;8.598;2023-01-15T05:46:53;0.50;;;0.50;;
6665;SDS011;3369;49.906;8.598;2023-01-15T05:49:22;0.40;;;0.40;;
6665;SDS011;3369;49.906;8.598;2023-01-15T05:51:49;0.40;;;0.40;;
6665;SDS011;3369;49.906;8.598;2023-01-15T05:54:17;0.30;;;0.30;;
6665;SDS011;3369;49.906;8.598;2023-01-15T05:56:44;0.30;;;0.30;;
6665;SDS011;3369;49.906;8.598;2023-01-15T05:59:10;1.07;;;0.50;;
6665;SDS011;3369;49.906;8.598;2023-01-15T06:01:37;0.50;;;0.50;;
6665;SDS011;3369;49.906;8.598;2023-01-15T06:04:04;0.73;;;0.50;;
6665;SDS011;3369;49.906;8.598;2023-01-15T06:06:30;0.67;;;0.60;;
6665;SDS011;3369;49.906;8.598;2023-01-15T06:08:57;0.40;;;0.40;;
6665;SDS011;3369;49.906;8.598;2023-01-15T06:11:23;0.40;;;0.40;;
6665;SDS011;3369;49.906;8.598;2023-01-15T06:13:48;0.50;;;0.50;;
6665;SDS011;3369;49.906;8.598;2023-01-15T06:16:14;0.70;;;0.40;;
6665;SDS011;3369;49.906;8.598;2023-01-15T06:18:40;0.50;;;0.50;;
6665;SDS011;3369;49.906;8.598;2023-01-15T06:21:07;0.30;;;0.30;;
6665;SDS011;3369;49.906;8.598;2023-01-15T06:23:34;0.60;;;0.60;;
6665;SDS011;3369;49.906;8.598;2023-01-15T06:26:04;0.50;;;0.50;;
6665;SDS011;3369;49.906;8.598;2023-01-15T06:28:32;1.07;;;0.60;;
6665;SDS011;3369;49.906;8.598;2023-01-15T06:30:58;0.50;;;0.50;;
6665;SDS011;3369;49.906;8.598;2023-01-15T06:33:24;0.50;;;0.50;;
6665;SDS011;3369;49.906;8.598;2023-01-15T06:35:49;0.53;;;0.53;;
6665;SDS011;3369;49.906;8.598;2023-01-15T06:38:16;1.10;;;0.60;;
6665;SDS011;3369;49.906;8.598;2023-01-15T06:40:42;0.50;;;0.50;;
6665;SDS011;3369;49.906;8.598;2023-01-15T06:43:08;0.50;;;0.50;;
6665;SDS011;3369;49.906;8.598;2023-01-15T06:45:53;1.47;;;1.37;;
6665;SDS011;3369;49.906;8.598;2023-01-15T06:48:51;1.23;;;0.70;;
6665;SDS011;3369;49.906;8.598;2023-01-15T06:51:17;0.90;;;0.73;;
6665;SDS011;3369;49.906;8.598;2023-01-15T06:53:45;0.50;;;0.50;;
6665;SDS011;3369;49.906;8.598;2023-01-15T06:56:11;0.80;;;0.80;;
6665;SDS011;3369;49.906;8.598;2023-01-15T06:58:41;0.80;;;0.80;;
6665;SDS011;3369;49.906;8.598;2023-01-15T07:01:08;0.73;;;0.67;;
6665;SDS011;3369;49.906;8.598;2023-01-15T07:03:40;1.33;;;0.80;;
6665;SDS011;3369;49.906;8.598;2023-01-15T07:06:09;0.90;;;0.70;;
6665;SDS011;3369;49.906;8.598;2023-01-15T07:08:36;1.00;;;1.00;;
6665;SDS011;3369;49.906;8.598;2023-01-15T07:11:03;1.33;;;1.00;;
6665;SDS011;3369;49.906;8.598;2023-01-15T07:13:30;1.10;;;1.00;;
6665;SDS011;3369;49.906;8.598;2023-01-15T07:15:56;1.30;;;1.20;;
6665;SDS011;3369;49.906;8.598;2023-01-15T07:18:27;2.53;;;1.10;;
6665;SDS011;3369;49.906;8.598;2023-01-15T07:20:56;1.10;;;1.00;;
6665;SDS011;3369;49.906;8.598;2023-01-15T07:23:23;0.70;;;0.70;;
6665;SDS011;3369;49.906;8.598;2023-01-15T07:25:53;0.70;;;0.70;;
6665;SDS011;3369;49.906;8.598;2023-01-15T07:28:19;1.03;;;0.87;;
6665;SDS011;3369;49.906;8.598;2023-01-15T07:30:45;0.60;;;0.60;;
6665;SDS011;3369;49.906;8.598;2023-01-15T07:33:11;0.70;;;0.70;;
6665;SDS011;3369;49.906;8.598;2023-01-15T07:35:37;0.80;;;0.80;;
6665;SDS011;3369;49.906;8.598;2023-01-15T07:38:03;0.50;;;0.50;;
6665;SDS011;3369;49.906;8.598;2023-01-15T07:40:28;0.43;;;0.43;;
6665;SDS011;3369;49.906;8.598;2023-01-15T07:42:54;0.50;;;0.50;;
6665;SDS011;3369;49.906;8.598;2023-01-15T07:45:39;0.40;;;0.40;;
6665;SDS011;3369;49.906;8.598;2023-01-15T07:48:25;6.17;;;3.93;;
6665;SDS011;3369;49.906;8.598;2023-01-15T07:51:09;4.60;;;3.50;;
6665;SDS011;3369;49.906;8.598;2023-01-15T07:53:35;3.10;;;2.70;;
6665;SDS011;3369;49.906;8.598;2023-01-15T07:56:00;2.27;;;2.03;;
6665;SDS011;3369;49.906;8.598;2023-01-15T07:58:26;1.30;;;1.20;;
6665;SDS011;3369;49.906;8.598;2023-01-15T08:00:51;0.70;;;0.70;;
6665;SDS011;3369;49.906;8.598;2023-01-15T08:03:17;0.53;;;0.50;;
6665;SDS011;3369;49.906;8.598;2023-01-15T08:05:43;0.70;;;0.70;;
6665;SDS011;3369;49.906;8.598;2023-01-15T08:08:15;0.63;;;0.60;;
6665;SDS011;3369;49.906;8.598;2023-01-15T08:10:42;9.53;;;0.80;;
6665;SDS011;3369;49.906;8.598;2023-01-15T08:13:28;1.13;;;1.00;;
6665;SDS011;3369;49.906;8.598;2023-01-15T08:16:12;0.50;;;0.50;;
6665;SDS011;3369;49.906;8.598;2023-01-15T08:18:37;0.50;;;0.50;;
6665;SDS011;3369;49.906;8.598;2023-01-15T08:21:03;0.77;;;0.50;;
6665;SDS011;3369;49.906;8.598;2023-01-15T08:23:29;0.50;;;0.50;;
6665;SDS011;3369;49.906;8.598;2023-01-15T08:25:58;0.50;;;0.50;;
6665;SDS011;3369;49.906;8.598;2023-01-15T08:28:24;0.57;;;0.57;;
6665;SDS011;3369;49.906;8.598;2023-01-15T08:30:50;0.50;;;0.50;;
6665;SDS011;3369;49.906;8.598;2023-01-15T08:33:16;0.50;;;0.50;;
6665;SDS011;3369;49.906;8.598;2023-01-15T08:35:42;0.50;;;0.50;;
6665;SDS011;3369;49.906;8.598;2023-01-15T08:38:07;0.50;;;0.50;;
6665;SDS011;3369;49.906;8.598;2023-01-15T08:40:33;0.80;;;0.60;;
6665;SDS011;3369;49.906;8.598;2023-01-15T08:43:20;0.50;;;0.40;;
6665;SDS011;3369;49.906;8.598;2023-01-15T08:45:45;0.50;;;0.50;;
6665;SDS011;3369;49.906;8.598;2023-01-15T08:48:11;0.50;;;0.50;;
6665;SDS011;3369;49.906;8.598;2023-01-15T08:50:36;0.50;;;0.50;;
6665;SDS011;3369;49.906;8.598;2023-01-15T08:53:02;1.10;;;0.67;;
6665;SDS011;3369;49.906;8.598;2023-01-15T08:55:28;0.43;;;0.43;;
6665;SDS011;3369;49.906;8.598;2023-01-15T08:57:53;0.60;;;0.60;;
6665;SDS011;3369;49.906;8.598;2023-01-15T09:00:25;0.50;;;0.50;;
6665;SDS011;3369;49.906;8.598;2023-01-15T09:02:50;0.60;;;0.53;;
6665;SDS011;3369;49.906;8.598;2023-01-15T09:05:16;0.70;;;0.70;;
6665;SDS011;3369;49.906;8.598;2023-01-15T09:07:42;0.57;;;0.57;;
6665;SDS011;3369;49.906;8.598;2023-01-15T09:10:08;0.60;;;0.60;;
6665;SDS011;3369;49.906;8.598;2023-01-15T09:12:34;0.50;;;0.50;;
6665;SDS011;3369;49.906;8.598;2023-01-15T09:15:00;0.50;;;0.50;;
6665;SDS011;3369;49.906;8.598;2023-01-15T09:17:26;0.57;;;0.57;;
6665;SDS011;3369;49.906;8.598;2023-01-15T09:19:51;0.50;;;0.50;;
6665;SDS011;3369;49.906;8.598;2023-01-15T09:22:17;0.50;;;0.50;;
6665;SDS011;3369;49.906;8.598;2023-01-15T09:24:43;0.50;;;0.50;;
6665;SDS011;3369;49.906;8.598;2023-01-15T09:27:11;1.87;;;0.60;;
6665;SDS011;3369;49.906;8.598;2023-01-15T09:29:37;0.50;;;0.50;;
6665;SDS011;3369;49.906;8.598;2023-01-15T09:32:03;0.50;;;0.50;;
6665;SDS011;3369;49.906;8.598;2023-01-15T09:34:29;1.30;;;0.50;;
6665;SDS011;3369;49.906;8.598;2023-01-15T09:36:54;0.50;;;0.50;;
6665;SDS011;3369;49.906;8.598;2023-01-15T09:39:20;0.50;;;0.50;;
6665;SDS011;3369;49.906;8.598;2023-01-15T09:55:45;0.90;;;0.90;;
6665;SDS011;3369;49.906;8.598;2023-01-15T09:58:13;0.77;;;0.77;;
6665;SDS011;3369;49.906;8.598;2023-01-15T10:00:47;0.60;;;0.60;;
6665;SDS011;3369;49.906;8.598;2023-01-15T10:06:11;2.00;;;0.60;;
6665;SDS011;3369;49.906;8.598;2023-01-15T10:08:46;0.60;;;0.60;;
6665;SDS011;3369;49.906;8.598;2023-01-15T10:13:48;1.43;;;0.90;;
6665;SDS011;3369;49.906;8.598;2023-01-15T10:16:28;1.77;;;1.10;;
6665;SDS011;3369;49.906;8.598;2023-01-15T10:18:57;0.63;;;0.63;;
6665;SDS011;3369;49.906;8.598;2023-01-15T10:21:39;0.60;;;0.60;;
6665;SDS011;3369;49.906;8.598;2023-01-15T10:27:14;0.60;;;0.60;;
6665;SDS011;3369;49.906;8.598;2023-01-15T10:29:51;1.53;;;0.60;;
6665;SDS011;3369;49.906;8.598;2023-01-15T10:35:04;0.60;;;0.60;;
6665;SDS011;3369;49.906;8.598;2023-01-15T10:37:49;0.80;;;0.70;;
6665;SDS011;3369;49.906;8.598;2023-01-15T10:45:55;0.90;;;0.90;;
6665;SDS011;3369;49.906;8.598;2023-01-15T10:51:26;0.60;;;0.60;;
6665;SDS011;3369;49.906;8.598;2023-01-15T11:01:42;3.43;;;0.83;;
6665;SDS011;3369;49.906;8.598;2023-01-15T11:04:09;0.60;;;0.60;;
6665;SDS011;3369;49.906;8.598;2023-01-15T11:06:38;0.60;;;0.50;;
6665;SDS011;3369;49.906;8.598;2023-01-15T11:09:05;3.43;;;1.33;;
6665;SDS011;3369;49.906;8.598;2023-01-15T11:11:36;2.50;;;0.70;;
6665;SDS011;3369;49.906;8.598;2023-01-15T11:14:39;0.80;;;0.80;;
6665;SDS011;3369;49.906;8.598;2023-01-15T11:17:28;1.90;;;0.80;;
6665;SDS011;3369;49.906;8.598;2023-01-15T11:20:35;0.50;;;0.50;;
6665;SDS011;3369;49.906;8.598;2023-01-15T11:23:15;1.23;;;0.60;;
6665;SDS011;3369;49.906;8.598;2023-01-15T11:25:52;0.97;;;0.83;;
6665;SDS011;3369;49.906;8.598;2023-01-15T11:28:34;0.63;;;0.60;;
6665;SDS011;3369;49.906;8.598;2023-01-15T11:31:05;0.63;;;0.63;;
6665;SDS011;3369;49.906;8.598;2023-01-15T11:33:32;0.67;;;0.67;;
6665;SDS011;3369;49.906;8.598;2023-01-15T11:35:59;0.83;;;0.80;;
6665;SDS011;3369;49.906;8.598;2023-01-15T11:38:30;2.30;;;0.93;;
6665;SDS011;3369;49.906;8.598;2023-01-15T11:41:15;1.90;;;0.90;;
6665;SDS011;3369;49.906;8.598;2023-01-15T11:43:51;0.80;;;0.80;;
6665;SDS011;3369;49.906;8.598;2023-01-15T11:46:44;0.63;;;0.63;;
6665;SDS011;3369;49.906;8.598;2023-01-15T11:49:29;0.70;;;0.70;;
6665;SDS011;3369;49.906;8.598;2023-01-15T11:52:15;0.80;;;0.80;;
6665;SDS011;3369;49.906;8.598;2023-01-15T11:54:45;0.83;;;0.63;;
6665;SDS011;3369;49.906;8.598;2023-01-15T11:57:24;1.40;;;0.83;;
6665;SDS011;3369;49.906;8.598;2023-01-15T12:00:01;0.50;;;0.50;;
6665;SDS011;3369;49.906;8.598;2023-01-15T12:05:12;0.97;;;0.60;;
6665;SDS011;3369;49.906;8.598;2023-01-15T12:07:51;2.20;;;0.73;;
6665;SDS011;3369;49.906;8.598;2023-01-15T12:10:20;2.13;;;0.70;;
6665;SDS011;3369;49.906;8.598;2023-01-15T12:13:14;0.50;;;0.50;;
6665;SDS011;3369;49.906;8.598;2023-01-15T12:15:56;2.87;;;0.80;;
6665;SDS011;3369;49.906;8.598;2023-01-15T12:29:50;3.27;;;1.17;;
6665;SDS011;3369;49.906;8.598;2023-01-15T12:32:42;2.50;;;1.20;;
6665;SDS011;3369;49.906;8.598;2023-01-15T12:35:31;2.00;;;0.90;;
6665;SDS011;3369;49.906;8.598;2023-01-15T12:38:09;1.50;;;0.80;;
6665;SDS011;3369;49.906;8.598;2023-01-15T12:40:58;1.50;;;0.80;;
6665;SDS011;3369;49.906;8.598;2023-01-15T12:43:28;0.60;;;0.60;;
6665;SDS011;3369;49.906;8.598;2023-01-15T12:46:16;1.33;;;0.70;;
6665;SDS011;3369;49.906;8.598;2023-01-15T12:48:56;2.10;;;0.83;;
6665;SDS011;3369;49.906;8.598;2023-01-15T12:54:14;1.33;;;0.70;;
6665;SDS011;3369;49.906;8.598;2023-01-15T12:56:57;1.50;;;0.80;;
6665;SDS011;3369;49.906;8.598;2023-01-15T12:59:29;3.40;;;0.83;;
6665;SDS011;3369;49.906;8.598;2023-01-15T13:07:17;3.33;;;0.83;;
6665;SDS011;3369;49.906;8.598;2023-01-15T13:09:48;1.13;;;0.90;;
6665;SDS011;3369;49.906;8.598;2023-01-15T13:12:24;1.27;;;0.70;;
6665;SDS011;3369;49.906;8.598;2023-01-15T13:14:51;1.10;;;0.80;;
6665;SDS011;3369;49.906;8.598;2023-01-15T13:17:40;1.90;;;1.00;;
6665;SDS011;3369;49.906;8.598;2023-01-15T13:20:38;3.33;;;1.40;;
6665;SDS011;3369;49.906;8.598;2023-01-15T13:23:26;3.23;;;1.00;;
6665;SDS011;3369;49.906;8.598;2023-01-15T13:33:57;1.03;;;0.93;;
6665;SDS011;3369;49.906;8.598;2023-01-15T13:36:32;1.07;;;0.87;;
6665;SDS011;3369;49.906;8.598;2023-01-15T13:39:04;1.83;;;0.77;;
6665;SDS011;3369;49.906;8.598;2023-01-15T13:41:40;0.60;;;0.60;;
6665;SDS011;3369;49.906;8.598;2023-01-15T13:44:27;3.80;;;1.20;;
6665;SDS011;3369;49.906;8.598;2023-01-15T13:47:06;3.07;;;0.90;;
6665;SDS011;3369;49.906;8.598;2023-01-15T13:49:39;1.10;;;0.97;;
6665;SDS011;3369;49.906;8.598;2023-01-15T13:52:26;1.30;;;0.80;;
6665;SDS011;3369;49.906;8.598;2023-01-15T13:54:57;2.43;;;1.00;;
6665;SDS011;3369;49.906;8.598;2023-01-15T13:57:32;2.33;;;0.97;;
6665;SDS011;3369;49.906;8.598;2023-01-15T13:59:59;3.33;;;0.90;;
6665;SDS011;3369;49.906;8.598;2023-01-15T14:02:30;0.90;;;0.90;;
6665;SDS011;3369;49.906;8.598;2023-01-15T14:04:58;1.23;;;0.93;;
6665;SDS011;3369;49.906;8.598;2023-01-15T14:07:34;1.13;;;1.03;;
6665;SDS011;3369;49.906;8.598;2023-01-15T14:10:09;1.93;;;0.93;;
6665;SDS011;3369;49.906;8.598;2023-01-15T14:12:59;1.60;;;0.90;;
6665;SDS011;3369;49.906;8.598;2023-01-15T14:26:07;3.37;;;0.97;;
6665;SDS011;3369;49.906;8.598;2023-01-15T14:31:28;3.10;;;0.90;;
6665;SDS011;3369;49.906;8.598;2023-01-15T14:55:25;1.60;;;1.03;;
6665;SDS011;3369;49.906;8.598;2023-01-15T14:57:56;5.70;;;2.43;;
6665;SDS011;3369;49.906;8.598;2023-01-15T15:00:29;4.83;;;1.20;;
6665;SDS011;3369;49.906;8.598;2023-01-15T15:03:13;3.70;;;1.30;;
6665;SDS011;3369;49.906;8.598;2023-01-15T15:05:42;1.50;;;1.00;;
6665;SDS011;3369;49.906;8.598;2023-01-15T15:08:14;3.03;;;1.20;;
6665;SDS011;3369;49.906;8.598;2023-01-15T15:10:43;3.00;;;1.40;;
6665;SDS011;3369;49.906;8.598;2023-01-15T15:13:15;5.00;;;1.47;;
6665;SDS011;3369;49.906;8.598;2023-01-15T15:15:58;3.90;;;1.63;;
6665;SDS011;3369;49.906;8.598;2023-01-15T15:18:38;1.50;;;1.13;;
6665;SDS011;3369;49.906;8.598;2023-01-15T15:21:16;2.37;;;1.03;;
6665;SDS011;3369;49.906;8.598;2023-01-15T15:23:54;3.20;;;1.43;;
6665;SDS011;3369;49.906;8.598;2023-01-15T15:26:35;3.30;;;1.37;;
6665;SDS011;3369;49.906;8.598;2023-01-15T15:36:39;5.40;;;1.30;;
6665;SDS011;3369;49.906;8.598;2023-01-15T15:42:10;4.83;;;1.70;;
6665;SDS011;3369;49.906;8.598;2023-01-15T15:45:14;4.33;;;1.17;;
6665;SDS011;3369;49.906;8.598;2023-01-15T21:01:40;5.20;;;1.50;;
6665;SDS011;3369;49.906;8.598;2023-01-15T21:04:06;4.27;;;1.60;;
6665;SDS011;3369;49.906;8.598;2023-01-15T21:06:33;3.53;;;1.97;;
6665;SDS011;3369;49.906;8.598;2023-01-15T21:08:59;2.80;;;1.50;;
6665;SDS011;3369;49.906;8.598;2023-01-15T21:11:25;4.53;;;1.50;;
6665;SDS011;3369;49.906;8.598;2023-01-15T21:13:51;3.33;;;1.47;;
6665;SDS011;3369;49.906;8.598;2023-01-15T21:16:16;6.17;;;2.83;;
6665;SDS011;3369;49.906;8.598;2023-01-15T21:18:42;3.00;;;1.83;;
6665;SDS011;3369;49.906;8.598;2023-01-15T21:21:14;3.70;;;1.43;;
6665;SDS011;3369;49.906;8.598;2023-01-15T21:23:41;3.93;;;1.40;;
6665;SDS011;3369;49.906;8.598;2023-01-15T21:26:09;3.87;;;1.50;;
6665;SDS011;3369;49.906;8.598;2023-01-15T21:28:36;1.93;;;1.53;;
6665;SDS011;3369;49.906;8.598;2023-01-15T21:31:05;6.73;;;1.87;;
6665;SDS011;3369;49.906;8.598;2023-01-15T21:33:32;2.97;;;1.60;;
6665;SDS011;3369;49.906;8.598;2023-01-15T21:35:57;2.43;;;1.00;;
6665;SDS011;3369;49.906;8.598;2023-01-15T21:38:23;2.77;;;1.80;;
6665;SDS011;3369;49.906;8.598;2023-01-15T21:40:48;3.10;;;1.50;;
6665;SDS011;3369;49.906;8.598;2023-01-15T21:43:14;3.03;;;1.60;;
6665;SDS011;3369;49.906;8.598;2023-01-15T21:46:04;6.87;;;1.73;;
6665;SDS011;3369;49.906;8.598;2023-01-15T21:48:30;5.93;;;1.43;;
6665;SDS011;3369;49.906;8.598;2023-01-15T21:50:57;2.60;;;1.13;;
6665;SDS011;3369;49.906;8.598;2023-01-15T21:53:22;2.40;;;1.47;;
6665;SDS011;3369;49.906;8.598;2023-01-15T21:55:48;5.20;;;1.97;;
6665;SDS011;3369;49.906;8.598;2023-01-15T21:58:15;2.93;;;1.43;;
6665;SDS011;3369;49.906;8.598;2023-01-15T22:00:41;2.83;;;1.40;;
6665;SDS011;3369;49.906;8.598;2023-01-15T22:03:07;2.97;;;1.30;;
6665;SDS011;3369;49.906;8.598;2023-01-15T22:05:34;1.97;;;1.40;;
6665;SDS011;3369;49.906;8.598;2023-01-15T22:08:00;2.67;;;1.20;;
6665;SDS011;3369;49.906;8.598;2023-01-15T22:10:29;6.33;;;1.67;;
6665;SDS011;3369;49.906;8.598;2023-01-15T22:12:55;2.50;;;1.47;;
6665;SDS011;3369;49.906;8.598;2023-01-15T22:15:21;1.93;;;1.30;;
6665;SDS011;3369;49.906;8.598;2023-01-15T22:17:48;2.60;;;1.30;;
6665;SDS011;3369;49.906;8.598;2023-01-15T22:20:18;4.23;;;1.40;;
6665;SDS011;3369;49.906;8.598;2023-01-15T22:22:44;4.20;;;2.20;;
6665;SDS011;3369;49.906;8.598;2023-01-15T22:25:10;3.70;;;1.40;;
6665;SDS011;3369;49.906;8.598;2023-01-15T22:27:39;2.73;;;1.37;;
6665;SDS011;3369;49.906;8.598;2023-01-15T22:30:07;4.57;;;1.50;;
6665;SDS011;3369;49.906;8.598;2023-01-15T22:32:37;3.70;;;1.57;;
6665;SDS011;3369;49.906;8.598;2023-01-15T22:35:03;2.70;;;1.20;;
6665;SDS011;3369;49.906;8.598;2023-01-15T22:37:29;2.00;;;1.40;;
6665;SDS011;3369;49.906;8.598;2023-01-15T22:39:55;2.27;;;1.10;;
6665;SDS011;3369;49.906;8.598;2023-01-15T22:42:21;2.57;;;2.37;;
6665;SDS011;3369;49.906;8.598;2023-01-15T22:44:51;2.03;;;1.40;;
6665;SDS011;3369;49.906;8.598;2023-01-15T22:47:17;3.93;;;1.33;;
6665;SDS011;3369;49.906;8.598;2023-01-15T22:49:43;1.90;;;1.30;;
6665;SDS011;3369;49.906;8.598;2023-01-15T22:52:09;3.30;;;1.20;;
6665;SDS011;3369;49.906;8.598;2023-01-15T22:54:34;5.30;;;1.40;;
6665;SDS011;3369;49.906;8.598;2023-01-15T22:57:00;4.53;;;1.57;;
6665;SDS011;3369;49.906;8.598;2023-01-15T22:59:26;3.50;;;1.40;;
6665;SDS011;3369;49.906;8.598;2023-01-15T23:01:52;3.93;;;1.40;;
6665;SDS011;3369;49.906;8.598;2023-01-15T23:04:21;2.40;;;1.57;;
6665;SDS011;3369;49.906;8.598;2023-01-15T23:06:48;2.47;;;1.13;;
6665;SDS011;3369;49.906;8.598;2023-01-15T23:09:16;4.70;;;1.60;;
6665;SDS011;3369;49.906;8.598;2023-01-15T23:11:42;3.43;;;1.33;;
6665;SDS011;3369;49.906;8.598;2023-01-15T23:14:10;2.60;;;1.30;;
6665;SDS011;3369;49.906;8.598;2023-01-15T23:16:37;2.77;;;1.20;;
6665;SDS011;3369;49.906;8.598;2023-01-15T23:19:02;5.80;;;1.20;;
6665;SDS011;3369;49.906;8.598;2023-01-15T23:21:29;2.90;;;1.10;;
6665;SDS011;3369;49.906;8.598;2023-01-15T23:23:56;2.47;;;1.50;;
6665;SDS011;3369;49.906;8.598;2023-01-15T23:26:23;4.47;;;1.23;;
6665;SDS011;3369;49.906;8.598;2023-01-15T23:28:51;3.27;;;1.20;;
6665;SDS011;3369;49.906;8.598;2023-01-15T23:31:17;4.87;;;1.60;;
6665;SDS011;3369;49.906;8.598;2023-01-15T23:33:44;2.80;;;1.23;;
6665;SDS011;3369;49.906;8.598;2023-01-15T23:36:10;6.27;;;2.07;;
6665;SDS011;3369;49.906;8.598;2023-01-15T23:38:37;4.30;;;2.20;;
6665;SDS011;3369;49.906;8.598;2023-01-15T23:41:07;3.40;;;1.47;;
6665;SDS011;3369;49.906;8.598;2023-01-15T23:43:35;3.27;;;2.30;;
6665;SDS011;3369;49.906;8.598;2023-01-15T23:46:20;1.20;;;1.10;;
6665;SDS011;3369;49.906;8.598;2023-01-15T23:49:03;3.80;;;1.30;;
6665;SDS011;3369;49.906;8.598;2023-01-15T23:51:33;2.57;;;1.53;;
6665;SDS011;3369;49.906;8.598;2023-01-15T23:54:00;3.90;;;1.60;;
6665;SDS011;3369;49.906;8.598;2023-01-15T23:56:27;3.70;;;1.30;;
6665;SDS011;3369;49.906;8.598;2023-01-15T23:58:54;3.00;;;1.43;;
